Time;durP1;ratioP1;P1;durP2;ratioP2;P2;SDS_P1;SDS_P2;PMS_P1;PMS_P2;Temp;Humidity;BMP_temperature;BMP_pressure;BME280_temperature;BME280_humidity;BME280_pressure;Samples;Min_cycle;Max_cycle;Signal;HPM_P1;HPM_P2
2023/06/12 00:02:13;;;;;;;8.90;4.80;;;;;;;12.22;72.21;97440.73;108819;1251;99765;-73
2023/06/12 00:04:43;;;;;;;8.50;5.20;;;;;;;12.16;72.13;97437.52;108740;1251;95613;-73
2023/06/12 00:07:11;;;;;;;9.30;5.00;;;;;;;12.08;72.22;97435.78;108749;1251;96051;-74
2023/06/12 00:09:40;;;;;;;6.40;4.90;;;;;;;12.01;72.35;97438.92;108796;1251;103622;-72
2023/06/12 00:12:09;;;;;;;8.10;5.10;;;;;;;11.96;72.37;97437.30;108796;1251;101230;-74
2023/06/12 00:14:37;;;;;;;6.40;5.10;;;;;;;11.92;72.50;97440.20;108748;1251;99839;-72
2023/06/12 00:17:06;;;;;;;8.00;4.70;;;;;;;11.87;72.66;97438.67;108750;1251;95607;-74
2023/06/12 00:19:37;;;;;;;10.30;4.60;;;;;;;11.84;72.75;97438.98;108771;1251;95989;-74
2023/06/12 00:22:06;;;;;;;7.80;5.30;;;;;;;11.80;72.74;97443.48;108840;1251;102025;-73
2023/06/12 00:24:34;;;;;;;6.50;5.00;;;;;;;11.74;72.68;97441.98;108679;1251;100060;-75
2023/06/12 00:27:02;;;;;;;6.00;5.20;;;;;;;11.70;72.94;97440.09;108741;1251;99495;-74
2023/06/12 00:29:30;;;;;;;6.70;4.80;;;;;;;11.67;73.00;97439.98;108749;1251;95882;-73
2023/06/12 00:31:58;;;;;;;12.90;4.90;;;;;;;11.61;73.05;97439.35;108785;1251;96138;-73
2023/06/12 00:34:26;;;;;;;8.10;5.10;;;;;;;11.52;73.04;97438.45;108759;1251;103915;-73
2023/06/12 00:36:54;;;;;;;6.80;4.80;;;;;;;11.47;73.31;97437.19;108553;1251;101414;-75
2023/06/12 00:39:23;;;;;;;6.60;5.10;;;;;;;11.44;73.30;97439.26;108570;1251;98973;-72
2023/06/12 00:41:51;;;;;;;6.90;5.10;;;;;;;11.40;73.50;97439.10;108771;1251;95639;-72
2023/06/12 00:44:19;;;;;;;8.70;5.90;;;;;;;11.37;73.56;97440.33;108805;1251;96010;-72
2023/06/12 00:46:47;;;;;;;7.30;4.80;;;;;;;11.32;73.62;97440.02;108787;1251;103664;-74
2023/06/12 00:49:15;;;;;;;7.30;5.00;;;;;;;11.27;73.47;97438.24;108846;1251;101062;-73
2023/06/12 00:51:43;;;;;;;7.30;5.40;;;;;;;11.17;73.60;97440.45;108801;1251;99893;-73
2023/06/12 00:54:11;;;;;;;5.60;5.00;;;;;;;11.14;73.95;97441.61;108812;1253;95564;-75
2023/06/12 00:56:39;;;;;;;6.90;5.30;;;;;;;11.10;74.05;97437.40;108561;1255;96748;-72
2023/06/12 00:59:07;;;;;;;6.50;5.10;;;;;;;11.07;74.11;97433.67;108786;1251;103060;-72
2023/06/12 01:01:36;;;;;;;5.20;4.70;;;;;;;11.03;74.08;97431.73;108530;1251;101125;-72
2023/06/12 01:04:04;;;;;;;7.20;4.90;;;;;;;10.97;74.18;97429.60;108439;1251;98966;-72
2023/06/12 01:07:02;;;;;;;8.30;4.80;;;;;;;10.93;74.09;97429.94;108813;1251;95578;-72
2023/06/12 01:09:41;;;;;;;7.30;5.00;;;;;;;10.86;74.28;97430.48;108209;1258;96244;-72
2023/06/12 01:12:11;;;;;;;9.60;4.90;;;;;;;10.84;74.45;97429.73;108250;1259;103685;-74
2023/06/12 01:14:39;;;;;;;9.40;5.20;;;;;;;10.83;74.69;97431.02;108206;1259;101316;-74
2023/06/12 01:17:07;;;;;;;8.50;5.40;;;;;;;10.78;74.66;97433.52;108192;1259;99882;-73
2023/06/12 01:19:35;;;;;;;8.20;5.10;;;;;;;10.70;74.57;97435.36;108193;1258;95802;-74
2023/06/12 01:22:10;;;;;;;6.40;5.00;;;;;;;10.66;74.77;97431.63;108224;1259;96086;-72
2023/06/12 01:24:45;;;;;;;6.00;4.80;;;;;;;10.66;74.89;97431.27;108202;1259;103562;-72
2023/06/12 01:27:23;;;;;;;5.50;4.90;;;;;;;10.64;74.94;97432.33;108276;1259;101430;-74
2023/06/12 01:30:16;;;;;;;5.20;4.60;;;;;;;10.59;75.01;97436.80;108195;1259;100175;-75
2023/06/12 01:32:44;;;;;;;9.10;5.20;;;;;;;10.59;75.25;97434.23;108210;1259;95667;-73
2023/06/12 01:35:23;;;;;;;5.80;4.70;;;;;;;10.61;75.42;97434.48;108203;1259;96085;-72
2023/06/12 01:38:00;;;;;;;8.50;4.90;;;;;;;10.61;75.41;97435.56;108238;1259;103536;-74
2023/06/12 01:40:30;;;;;;;6.00;4.50;;;;;;;10.60;75.47;97434.14;108217;1259;101037;-73
2023/06/12 01:42:59;;;;;;;7.70;5.30;;;;;;;10.56;75.42;97435.98;108193;1259;108284;-72
2023/06/12 01:45:27;;;;;;;7.90;5.00;;;;;;;10.55;75.64;97436.60;108153;1258;95781;-72
2023/06/12 01:47:55;;;;;;;5.60;5.10;;;;;;;10.54;75.69;97438.95;108753;1251;96951;-75
2023/06/12 01:50:23;;;;;;;7.00;4.70;;;;;;;10.52;75.80;97440.20;108891;1250;103542;-73
2023/06/12 01:52:51;;;;;;;8.10;5.10;;;;;;;10.51;75.85;97441.30;108849;1250;101002;-74
2023/06/12 01:55:21;;;;;;;7.60;5.30;;;;;;;10.48;75.86;97443.19;108675;1250;100053;-72
2023/06/12 01:57:50;;;;;;;8.40;5.40;;;;;;;10.45;76.06;97443.48;108921;1250;95972;-73
2023/06/12 02:00:18;;;;;;;8.20;5.30;;;;;;;10.42;75.87;97443.96;108840;1250;95986;-73
2023/06/12 02:02:47;;;;;;;5.80;4.70;;;;;;;10.39;75.88;97443.38;108892;1250;103559;-73
2023/06/12 02:05:15;;;;;;;7.90;5.30;;;;;;;10.38;75.82;97442.03;108692;1250;101440;-72
2023/06/12 02:07:43;;;;;;;5.90;5.20;;;;;;;10.36;75.91;97441.23;108642;1250;99707;-72
2023/06/12 02:10:11;;;;;;;8.50;5.60;;;;;;;10.35;76.14;97440.62;108896;1250;95672;-74
2023/06/12 02:12:39;;;;;;;7.90;5.00;;;;;;;10.34;76.15;97439.88;108880;1250;96041;-72
2023/06/12 02:15:08;;;;;;;6.40;5.20;;;;;;;10.28;76.00;97443.15;108570;1250;103458;-73
2023/06/12 02:17:36;;;;;;;7.40;5.00;;;;;;;10.21;76.22;97444.64;108638;1257;101141;-74
2023/06/12 02:20:05;;;;;;;7.10;5.70;;;;;;;10.20;76.40;97444.48;108902;1250;100036;-72
2023/06/12 02:22:33;;;;;;;7.90;5.20;;;;;;;10.17;76.37;97446.61;108601;1250;96053;-72
2023/06/12 02:25:03;;;;;;;7.40;5.10;;;;;;;10.18;76.65;97442.42;108906;1251;96483;-72
2023/06/12 02:27:31;;;;;;;7.00;5.10;;;;;;;10.18;76.67;97441.48;108953;1250;103437;-72
2023/06/12 02:29:59;;;;;;;6.60;4.70;;;;;;;10.20;76.82;97445.14;108965;1250;102259;-72
2023/06/12 02:32:27;;;;;;;9.90;5.50;;;;;;;10.24;76.76;97448.47;108869;1250;99936;-74
2023/06/12 02:34:55;;;;;;;8.20;5.30;;;;;;;10.24;76.91;97447.81;108574;1250;95895;-73
2023/06/12 02:37:23;;;;;;;7.60;4.70;;;;;;;10.28;77.12;97448.24;108939;1250;95979;-72
2023/06/12 02:39:51;;;;;;;7.90;5.80;;;;;;;10.32;77.04;97446.02;108906;1250;103058;-72
2023/06/12 02:42:20;;;;;;;4.90;4.40;;;;;;;10.35;76.98;97451.95;108950;1253;100984;-74
2023/06/12 02:44:48;;;;;;;6.30;4.60;;;;;;;10.33;76.95;97456.64;108890;1250;99990;-73
2023/06/12 02:47:18;;;;;;;7.10;5.20;;;;;;;10.31;77.08;97454.40;108862;1250;95558;-72
2023/06/12 02:49:47;;;;;;;7.60;5.20;;;;;;;10.33;77.17;97455.06;108901;1250;96054;-73
2023/06/12 02:52:15;;;;;;;8.60;5.40;;;;;;;10.38;77.29;97455.52;108951;1249;103624;-72
2023/06/12 02:54:43;;;;;;;8.00;5.30;;;;;;;10.41;77.22;97453.96;108936;1250;101247;-72
2023/06/12 02:57:11;;;;;;;6.00;5.20;;;;;;;10.44;77.29;97454.76;108906;1250;99676;-72
2023/06/12 02:59:39;;;;;;;6.00;5.20;;;;;;;10.48;77.23;97455.88;108799;1250;96032;-72
2023/06/12 03:02:07;;;;;;;6.40;4.70;;;;;;;10.52;77.12;97454.87;108655;1250;96132;-72
2023/06/12 03:04:35;;;;;;;7.80;4.80;;;;;;;10.55;77.06;97456.65;108919;1250;103526;-72
2023/06/12 03:07:05;;;;;;;10.40;4.60;;;;;;;10.59;77.04;97460.93;108901;1250;101348;-73
2023/06/12 03:09:34;;;;;;;8.70;5.20;;;;;;;10.62;77.13;97462.20;108606;1250;100247;-73
2023/06/12 03:12:03;;;;;;;7.90;4.60;;;;;;;10.64;77.05;97466.02;108919;1250;95719;-73
2023/06/12 03:14:33;;;;;;;7.30;5.00;;;;;;;10.66;77.06;97469.84;108909;1250;95993;-75
2023/06/12 03:17:02;;;;;;;7.30;4.60;;;;;;;10.70;77.21;97469.76;108827;1250;103181;-73
2023/06/12 03:19:30;;;;;;;8.00;4.80;;;;;;;10.71;77.01;97468.39;108766;1250;101688;-72
2023/06/12 03:21:59;;;;;;;7.40;5.00;;;;;;;10.70;77.19;97472.46;108906;1250;99839;-75
2023/06/12 03:24:29;;;;;;;5.40;4.30;;;;;;;10.68;77.10;97475.98;108894;1250;95853;-72
2023/06/12 03:26:58;;;;;;;8.20;4.20;;;;;;;10.67;77.14;97483.05;108915;1250;95989;-73
2023/06/12 03:29:26;;;;;;;6.40;4.80;;;;;;;10.64;77.19;97485.33;108904;1254;103679;-73
2023/06/12 03:31:55;;;;;;;9.00;4.30;;;;;;;10.65;77.15;97483.46;108897;1250;101353;-75
2023/06/12 03:34:23;;;;;;;13.80;5.30;;;;;;;10.63;77.02;97483.39;108896;1250;100044;-72
2023/06/12 03:36:51;;;;;;;10.90;5.20;;;;;;;10.59;76.97;97481.20;108901;1250;95506;-72
2023/06/12 03:39:19;;;;;;;7.40;4.60;;;;;;;10.57;76.97;97485.68;108938;1250;95983;-75
2023/06/12 03:41:57;;;;;;;5.40;3.90;;;;;;;10.54;77.00;97488.25;108594;1250;103547;-75
2023/06/12 03:44:26;;;;;;;8.60;4.50;;;;;;;10.52;76.95;97490.23;108934;1250;101258;-72
2023/06/12 03:46:54;;;;;;;7.50;4.50;;;;;;;10.50;77.06;97495.91;108882;1250;99604;-72
2023/06/12 03:49:23;;;;;;;12.40;4.60;;;;;;;10.53;77.22;97492.98;108910;1250;95666;-72
2023/06/12 03:51:51;;;;;;;6.90;4.50;;;;;;;10.57;77.12;97488.13;108607;1250;96021;-72
2023/06/12 03:54:20;;;;;;;6.50;3.90;;;;;;;10.62;77.15;97483.77;108978;1250;103635;-72
2023/06/12 03:56:48;;;;;;;9.40;4.40;;;;;;;10.66;77.24;97483.71;108771;1250;100434;-74
2023/06/12 03:59:18;;;;;;;7.30;4.70;;;;;;;10.69;77.34;97480.35;108783;1250;98979;-75
2023/06/12 04:01:48;;;;;;;8.00;4.10;;;;;;;10.72;77.29;97479.77;108917;1250;95533;-72
2023/06/12 04:04:16;;;;;;;9.00;4.90;;;;;;;10.75;77.09;97480.09;108873;1250;96092;-71
2023/06/12 04:06:46;;;;;;;6.50;4.70;;;;;;;10.75;77.12;97485.42;108933;1250;103218;-72
2023/06/12 04:09:14;;;;;;;8.10;4.10;;;;;;;10.77;77.05;97485.23;108974;1249;101030;-73
2023/06/12 04:11:46;;;;;;;6.40;3.70;;;;;;;10.80;77.17;97489.09;108869;1250;99946;-75
2023/06/12 04:14:14;;;;;;;7.50;3.50;;;;;;;10.83;77.19;97485.56;108895;1250;95566;-72
2023/06/12 04:16:42;;;;;;;7.60;4.50;;;;;;;10.88;77.12;97483.84;108952;1250;96026;-72
2023/06/12 04:19:12;;;;;;;6.90;3.70;;;;;;;10.93;76.95;97482.13;108901;1250;103612;-75
2023/06/12 04:21:40;;;;;;;6.10;3.30;;;;;;;10.96;76.93;97483.20;108938;1250;101307;-74
2023/06/12 04:24:15;;;;;;;5.50;4.40;;;;;;;11.02;77.03;97479.06;108862;1250;99486;-75
2023/06/12 04:26:46;;;;;;;5.90;4.00;;;;;;;11.07;76.97;97480.68;108901;1250;95575;-72
2023/06/12 04:29:14;;;;;;;6.00;4.10;;;;;;;11.11;76.89;97475.38;108907;1250;96344;-71
2023/06/12 04:31:43;;;;;;;7.00;3.60;;;;;;;11.14;76.16;97474.70;108953;1251;103824;-73
2023/06/12 04:34:15;;;;;;;6.80;4.00;;;;;;;11.23;75.78;97476.50;108933;1250;101021;-74
2023/06/12 04:36:45;;;;;;;6.10;3.90;;;;;;;11.31;75.48;97476.06;108898;1250;98965;-74
2023/06/12 04:39:13;;;;;;;5.00;3.90;;;;;;;11.39;75.14;97479.81;108882;1254;95995;-72
2023/06/12 04:41:41;;;;;;;8.10;4.30;;;;;;;11.48;74.72;97481.73;108945;1250;95980;-72
2023/06/12 04:44:11;;;;;;;3.00;2.70;;;;;;;11.59;74.40;97484.58;108949;1250;103525;-72
2023/06/12 04:46:39;;;;;;;3.60;2.80;;;;;;;11.68;73.82;97486.29;108922;1250;101629;-72
2023/06/12 04:49:08;;;;;;;5.40;3.00;;;;;;;11.77;73.41;97487.80;108886;1250;99949;-72
2023/06/12 04:51:38;;;;;;;3.30;3.00;;;;;;;11.85;72.76;97483.54;108889;1250;96039;-72
2023/06/12 04:54:09;;;;;;;4.30;3.00;;;;;;;11.94;72.55;97486.29;108591;1250;95991;-73
2023/06/12 04:56:40;;;;;;;5.00;2.70;;;;;;;12.03;72.40;97486.80;108901;1250;103484;-73
2023/06/12 04:59:08;;;;;;;4.50;2.40;;;;;;;12.11;71.90;97484.50;108835;1250;100439;-72
2023/06/12 05:01:38;;;;;;;4.80;3.10;;;;;;;12.19;71.70;97485.73;108900;1250;99884;-75
2023/06/12 05:04:06;;;;;;;4.10;2.80;;;;;;;12.25;71.56;97487.89;108898;1250;95765;-73
2023/06/12 05:06:37;;;;;;;3.20;2.80;;;;;;;12.32;71.20;97483.80;108915;1250;96468;-72
2023/06/12 05:09:07;;;;;;;6.10;3.00;;;;;;;12.39;70.78;97483.45;108878;1250;103515;-73
2023/06/12 05:11:35;;;;;;;4.70;2.70;;;;;;;12.45;70.39;97486.48;108336;1250;101342;-73
2023/06/12 05:14:03;;;;;;;6.10;2.80;;;;;;;12.51;70.18;97489.36;108882;1250;100016;-71
2023/06/12 05:16:32;;;;;;;3.00;2.50;;;;;;;12.58;69.82;97485.79;108900;1250;95657;-72
2023/06/12 05:19:00;;;;;;;4.70;3.40;;;;;;;12.63;69.44;97484.33;108900;1250;96005;-72
2023/06/12 05:21:28;;;;;;;7.50;3.40;;;;;;;12.69;68.99;97484.32;108838;1250;103465;-73
2023/06/12 05:23:56;;;;;;;5.00;2.80;;;;;;;12.75;68.78;97477.48;108863;1250;101171;-73
2023/06/12 05:26:41;;;;;;;3.60;2.60;;;;;;;12.80;68.38;97477.42;108854;1250;100177;-75
2023/06/12 05:29:10;;;;;;;5.60;3.10;;;;;;;12.86;68.20;97477.45;108886;1250;95581;-72
2023/06/12 05:31:41;;;;;;;3.70;2.70;;;;;;;12.90;67.43;97478.58;108941;1254;96655;-73
2023/06/12 05:34:09;;;;;;;5.30;3.20;;;;;;;12.96;67.31;97483.67;108888;1250;103663;-72
2023/06/12 05:36:38;;;;;;;4.60;2.60;;;;;;;13.03;67.08;97484.14;108899;1250;101325;-73
2023/06/12 05:39:15;;;;;;;3.60;2.80;;;;;;;13.09;66.70;97485.20;108863;1250;99817;-74
2023/06/12 05:41:50;;;;;;;3.60;2.80;;;;;;;13.16;66.31;97486.30;108848;1250;95536;-73
2023/06/12 05:44:26;;;;;;;5.00;3.10;;;;;;;13.23;66.18;97482.98;108914;1250;96062;-73
2023/06/12 05:47:01;;;;;;;6.30;3.10;;;;;;;13.31;65.99;97480.46;108877;1250;103486;-72
2023/06/12 05:49:29;;;;;;;6.70;2.50;;;;;;;13.39;65.80;97482.98;108750;1250;100362;-73
2023/06/12 05:51:57;;;;;;;6.30;2.80;;;;;;;13.47;65.32;97486.62;108640;1250;99674;-73
2023/06/12 05:54:25;;;;;;;3.20;2.90;;;;;;;13.56;65.24;97487.96;108517;1260;95719;-73
2023/06/12 05:56:53;;;;;;;4.80;2.80;;;;;;;13.65;64.92;97483.62;108910;1250;96120;-73
2023/06/12 05:59:23;;;;;;;5.80;3.00;;;;;;;13.71;64.63;97486.77;108887;1250;103606;-73
2023/06/12 06:01:52;;;;;;;3.60;2.30;;;;;;;13.78;64.62;97483.95;108883;1250;100412;-74
2023/06/12 06:04:26;;;;;;;5.60;2.70;;;;;;;13.85;64.13;97484.58;108877;1250;100141;-73
2023/06/12 06:06:54;;;;;;;4.00;2.40;;;;;;;13.90;63.56;97484.71;108544;1250;97116;-74
2023/06/12 06:09:22;;;;;;;3.50;2.80;;;;;;;13.95;63.46;97485.14;108801;1250;96117;-73
2023/06/12 06:11:50;;;;;;;3.80;2.40;;;;;;;14.03;63.42;97489.69;108924;1250;103531;-73
2023/06/12 06:14:19;;;;;;;5.80;2.90;;;;;;;14.14;62.86;97492.50;108914;1256;100974;-72
2023/06/12 06:16:47;;;;;;;4.00;2.50;;;;;;;14.23;62.80;97491.95;108858;1254;99900;-75
2023/06/12 06:19:16;;;;;;;5.80;2.60;;;;;;;14.31;62.47;97495.50;108898;1250;95698;-73
2023/06/12 06:21:44;;;;;;;3.00;2.00;;;;;;;14.36;61.92;97491.79;108938;1251;96740;-73
2023/06/12 06:24:12;;;;;;;3.40;2.10;;;;;;;14.43;61.98;97489.53;108911;1250;103554;-74
2023/06/12 06:26:41;;;;;;;2.50;2.20;;;;;;;14.50;61.98;97493.05;108909;1254;101317;-73
2023/06/12 06:29:09;;;;;;;4.00;2.40;;;;;;;14.57;61.78;97493.81;108867;1250;99992;-75
2023/06/12 06:31:37;;;;;;;5.00;2.80;;;;;;;14.67;61.44;97487.96;108586;1250;95689;-74
2023/06/12 06:34:05;;;;;;;4.60;2.40;;;;;;;14.73;61.15;97492.85;108894;1254;95989;-73
2023/06/12 06:36:33;;;;;;;8.40;2.70;;;;;;;14.81;60.86;97492.11;108893;1251;103608;-73
2023/06/12 06:39:01;;;;;;;3.00;2.00;;;;;;;14.87;59.94;97488.75;108926;1250;101005;-73
2023/06/12 06:41:29;;;;;;;4.60;2.40;;;;;;;14.90;59.70;97495.20;108863;1250;99940;-73
2023/06/12 06:43:57;;;;;;;5.80;2.60;;;;;;;14.94;59.43;97493.66;108830;1250;95531;-73
2023/06/12 06:46:26;;;;;;;9.40;2.50;;;;;;;15.00;58.83;97495.20;108951;1251;95967;-73
2023/06/12 06:48:54;;;;;;;3.20;2.10;;;;;;;15.07;58.47;97498.30;108704;1250;104684;-72
2023/06/12 06:51:22;;;;;;;4.00;2.30;;;;;;;15.11;58.27;97498.54;108922;1251;101277;-75
2023/06/12 06:53:50;;;;;;;4.60;2.50;;;;;;;15.16;58.02;97498.88;108866;1250;99954;-73
2023/06/12 06:56:18;;;;;;;4.40;2.60;;;;;;;15.19;57.47;97507.39;108856;1250;95572;-73
2023/06/12 06:58:48;;;;;;;3.20;2.10;;;;;;;15.23;57.26;97506.38;108930;1251;95629;-74
2023/06/12 07:01:17;;;;;;;3.00;2.10;;;;;;;15.27;57.30;97509.14;108898;1251;102618;-73
2023/06/12 07:03:45;;;;;;;3.40;2.10;;;;;;;15.32;57.03;97510.83;108927;1250;101732;-72
2023/06/12 07:06:13;;;;;;;4.30;2.00;;;;;;;15.38;56.68;97511.13;108865;1250;99888;-73
2023/06/12 07:08:41;;;;;;;3.50;2.40;;;;;;;15.45;56.73;97513.27;108871;1250;95513;-73
2023/06/12 07:11:09;;;;;;;7.00;2.40;;;;;;;15.51;56.29;97509.21;108673;1250;96793;-75
2023/06/12 07:13:40;;;;;;;5.40;2.00;;;;;;;15.58;56.32;97511.34;108910;1251;103407;-72
2023/06/12 07:16:09;;;;;;;7.50;2.50;;;;;;;15.67;56.34;97512.63;108887;1251;107804;-73
2023/06/12 07:18:37;;;;;;;7.40;2.50;;;;;;;15.72;55.64;97510.48;108882;1251;99912;-73
2023/06/12 07:21:05;;;;;;;7.90;2.40;;;;;;;15.77;55.84;97509.84;108853;1251;95772;-76
2023/06/12 07:23:33;;;;;;;3.10;2.20;;;;;;;15.85;55.83;97506.83;108895;1251;95818;-73
2023/06/12 07:26:01;;;;;;;6.50;2.20;;;;;;;15.92;55.43;97511.28;108762;1254;205529;-73
2023/06/12 07:28:30;;;;;;;5.30;2.10;;;;;;;15.98;55.34;97506.70;108711;1250;101339;-75
2023/06/12 07:30:58;;;;;;;5.90;2.40;;;;;;;16.05;55.47;97503.36;108746;1251;99949;-72
2023/06/12 07:33:26;;;;;;;3.40;2.10;;;;;;;16.11;55.53;97506.95;108784;1250;95555;-74
2023/06/12 07:35:54;;;;;;;7.80;2.10;;;;;;;16.16;55.11;97506.57;108898;1251;95741;-74
2023/06/12 07:38:23;;;;;;;11.40;2.80;;;;;;;16.22;55.11;97509.65;108923;1251;103591;-73
2023/06/12 07:40:51;;;;;;;4.90;2.50;;;;;;;16.30;54.94;97511.21;108925;1251;101335;-73
2023/06/12 07:43:19;;;;;;;2.90;2.20;;;;;;;16.38;54.59;97512.30;108874;1251;100111;-74
2023/06/12 07:45:48;;;;;;;5.50;2.50;;;;;;;16.48;54.50;97516.08;108877;1251;95588;-75
2023/06/12 07:48:16;;;;;;;4.90;2.20;;;;;;;16.58;53.50;97515.04;108873;1251;95960;-72
2023/06/12 07:50:45;;;;;;;3.50;2.10;;;;;;;16.67;53.66;97520.34;108936;1250;103357;-73
2023/06/12 07:53:13;;;;;;;4.10;2.20;;;;;;;16.75;53.31;97519.83;108740;1250;100399;-74
2023/06/12 07:55:41;;;;;;;4.80;2.40;;;;;;;16.83;52.82;97520.39;108881;1251;99607;-74
2023/06/12 07:58:10;;;;;;;5.10;2.10;;;;;;;17.04;53.14;97521.96;108670;1250;95701;-74
2023/06/12 08:00:39;;;;;;;8.20;2.40;;;;;;;17.32;52.60;97527.88;108894;1251;95943;-74
2023/06/12 08:03:08;;;;;;;4.20;2.20;;;;;;;17.62;51.32;97519.67;108856;1252;103158;-74
2023/06/12 08:05:37;;;;;;;4.20;2.00;;;;;;;17.95;51.00;97516.45;108926;1250;101115;-77
2023/06/12 08:08:05;;;;;;;7.00;1.90;;;;;;;18.36;50.19;97512.63;108843;1251;108550;-73
2023/06/12 08:10:34;;;;;;;4.30;2.20;;;;;;;18.70;49.90;97515.42;108886;1250;95714;-74
2023/06/12 08:13:02;;;;;;;2.70;2.00;;;;;;;19.10;49.77;97503.70;108861;1251;95824;-76
2023/06/12 08:15:30;;;;;;;8.70;2.30;;;;;;;19.51;49.55;97507.70;108711;1250;103697;-73
2023/06/12 08:17:58;;;;;;;4.90;2.10;;;;;;;19.84;48.52;97510.27;108858;1250;101557;-77
2023/06/12 08:20:27;;;;;;;3.60;2.40;;;;;;;20.19;48.01;97509.49;108857;1251;99803;-73
2023/06/12 08:22:58;;;;;;;3.30;2.30;;;;;;;20.51;47.94;97514.08;108887;1251;96315;-73
2023/06/12 08:25:26;;;;;;;7.60;2.20;;;;;;;20.88;47.48;97517.61;108939;1250;95747;-78
2023/06/12 08:27:55;;;;;;;4.30;2.00;;;;;;;21.18;46.58;97517.08;108909;1251;103279;-74
2023/06/12 08:30:24;;;;;;;3.90;1.80;;;;;;;21.38;46.10;97504.14;108873;1250;101027;-73
2023/06/12 08:32:52;;;;;;;7.10;2.40;;;;;;;21.66;46.01;97493.73;108705;1254;99887;-74
2023/06/12 08:35:20;;;;;;;4.10;2.40;;;;;;;21.87;45.61;97494.63;108589;1251;96003;-75
2023/06/12 08:37:48;;;;;;;6.20;2.10;;;;;;;22.15;45.39;97495.46;108911;1251;95746;-77
2023/06/12 08:40:17;;;;;;;2.80;2.40;;;;;;;22.45;45.46;97496.77;108916;1251;103402;-76
2023/06/12 08:42:51;;;;;;;2.40;1.80;;;;;;;22.67;45.07;97493.59;108902;1250;100295;-77
2023/06/12 08:45:20;;;;;;;6.70;2.10;;;;;;;23.11;44.84;97488.84;108866;1250;98910;-77
2023/06/12 08:47:50;;;;;;;5.30;2.20;;;;;;;23.58;44.10;97492.77;108906;1251;95598;-74
2023/06/12 08:50:19;;;;;;;4.90;2.30;;;;;;;23.82;43.07;97491.79;108901;1251;95780;-74
2023/06/12 08:52:48;;;;;;;7.40;2.60;;;;;;;23.75;41.62;97492.92;108830;1251;103546;-74
2023/06/12 08:55:17;;;;;;;3.90;2.30;;;;;;;23.43;41.45;97491.92;108940;1250;101096;-71
2023/06/12 08:57:47;;;;;;;2.80;2.20;;;;;;;23.30;42.12;97503.96;108925;1250;100051;-75
2023/06/12 09:00:16;;;;;;;4.80;2.40;;;;;;;23.30;42.04;97506.00;108888;1251;95611;-72
2023/06/12 09:02:48;;;;;;;6.40;2.10;;;;;;;23.10;41.84;97502.39;108572;1251;96894;-71
2023/06/12 09:05:22;;;;;;;4.60;2.00;;;;;;;23.10;42.12;97501.56;108874;1251;103582;-73
2023/06/12 09:07:51;;;;;;;8.60;1.90;;;;;;;23.28;41.99;97499.89;108897;1251;101402;-72
2023/06/12 09:10:20;;;;;;;5.50;2.10;;;;;;;22.96;41.41;97507.52;108838;1251;99922;-74
2023/06/12 09:12:48;;;;;;;4.10;1.80;;;;;;;22.73;41.49;97508.95;108861;1251;95656;-71
2023/06/12 09:15:18;;;;;;;5.90;1.90;;;;;;;22.51;41.08;97504.88;108890;1251;96020;-72
2023/06/12 09:17:51;;;;;;;2.40;2.00;;;;;;;22.38;41.55;97503.02;108905;1251;102683;-72
2023/06/12 09:20:28;;;;;;;3.40;1.90;;;;;;;22.73;41.94;97503.56;108915;1250;101303;-75
2023/06/12 09:23:00;;;;;;;3.00;1.90;;;;;;;23.21;41.29;97502.23;108850;1251;99463;-72
2023/06/12 09:25:37;;;;;;;3.80;2.20;;;;;;;23.58;41.24;97496.48;108854;1251;95534;-72
2023/06/12 09:28:05;;;;;;;3.90;2.30;;;;;;;23.62;40.91;97497.92;108887;1251;95690;-75
2023/06/12 09:30:39;;;;;;;3.80;1.90;;;;;;;23.86;40.92;97493.67;108872;1251;103518;-74
2023/06/12 09:33:07;;;;;;;8.10;2.30;;;;;;;24.25;40.70;97491.73;108858;1251;101369;-72
2023/06/12 09:35:52;;;;;;;4.20;1.90;;;;;;;24.58;39.62;97495.52;108840;1250;98981;-72
2023/06/12 09:38:31;;;;;;;9.10;2.10;;;;;;;24.86;39.30;97494.14;108865;1250;95594;-72
2023/06/12 09:41:03;;;;;;;3.00;1.90;;;;;;;25.03;38.62;97493.10;108907;1250;95604;-71
2023/06/12 09:43:31;;;;;;;3.40;2.00;;;;;;;25.24;38.92;97491.14;108823;1250;103555;-74
2023/06/12 09:46:03;;;;;;;3.20;2.00;;;;;;;25.48;38.40;97485.22;108670;1251;101349;-73
2023/06/12 09:48:35;;;;;;;3.70;2.00;;;;;;;25.64;38.50;97479.17;108817;1251;99917;-72
2023/06/12 09:51:08;;;;;;;2.50;1.80;;;;;;;25.40;37.49;97490.22;108857;1250;95549;-72
2023/06/12 09:53:39;;;;;;;3.70;2.30;;;;;;;25.38;37.19;97486.33;108914;1250;95805;-72
2023/06/12 09:56:09;;;;;;;3.50;2.00;;;;;;;25.31;36.64;97488.41;108906;1251;103530;-72
2023/06/12 09:58:39;;;;;;;4.00;2.10;;;;;;;25.34;37.16;97491.66;108910;1251;101048;-72
2023/06/12 10:01:08;;;;;;;5.90;2.10;;;;;;;25.46;37.01;97485.37;108834;1250;99907;-74
2023/06/12 10:03:39;;;;;;;2.40;1.90;;;;;;;25.52;37.22;97485.86;108858;1251;95597;-73
2023/06/12 10:06:11;;;;;;;4.00;2.10;;;;;;;25.53;36.47;97483.23;108882;1251;95856;-72
2023/06/12 10:08:40;;;;;;;4.80;2.00;;;;;;;25.39;36.34;97481.89;108445;1250;103603;-72
2023/06/12 10:11:09;;;;;;;5.30;2.00;;;;;;;25.30;36.70;97479.92;108855;1250;101250;-72
2023/06/12 10:13:40;;;;;;;5.10;2.20;;;;;;;25.24;36.84;97474.27;108803;1250;99991;-75
2023/06/12 10:16:09;;;;;;;4.20;1.60;;;;;;;25.19;36.66;97470.11;108873;1250;95889;-74
2023/06/12 10:18:39;;;;;;;4.70;2.00;;;;;;;25.14;36.92;97472.64;108883;1250;95814;-75
2023/06/12 10:21:08;;;;;;;6.20;2.20;;;;;;;25.22;37.37;97466.96;108936;1250;103451;-72
2023/06/12 10:23:38;;;;;;;6.60;2.10;;;;;;;25.36;36.96;97460.73;108901;1250;101258;-72
2023/06/12 10:26:07;;;;;;;8.10;2.10;;;;;;;25.23;36.55;97461.52;108866;1250;100233;-72
2023/06/12 10:28:35;;;;;;;4.30;1.90;;;;;;;25.14;36.54;97464.34;108887;1250;95872;-71
2023/06/12 10:31:14;;;;;;;3.70;1.80;;;;;;;25.07;36.32;97469.27;108487;1250;96644;-71
2023/06/12 10:34:02;;;;;;;4.20;2.20;;;;;;;24.89;36.71;97463.67;108643;1250;103134;-72
2023/06/12 10:36:47;;;;;;;4.60;2.00;;;;;;;24.89;36.69;97459.46;108882;1250;100377;-74
2023/06/12 10:39:23;;;;;;;3.60;2.30;;;;;;;24.58;35.06;97463.73;108837;1250;99767;-72
2023/06/12 10:41:59;;;;;;;3.60;1.90;;;;;;;24.11;34.96;97462.96;108694;1250;95699;-74
2023/06/12 10:44:38;;;;;;;3.80;2.20;;;;;;;23.44;34.81;97460.97;108908;1250;95864;-72
2023/06/12 10:47:21;;;;;;;2.50;2.20;;;;;;;22.97;35.55;97461.98;108918;1250;103492;-75
2023/06/12 10:50:03;;;;;;;4.60;2.20;;;;;;;22.96;36.27;97455.51;108781;1253;101295;-71
2023/06/12 10:52:32;;;;;;;1.80;1.70;;;;;;;22.80;36.34;97452.67;108621;1250;99986;-71
2023/06/12 10:55:30;;;;;;;3.60;2.00;;;;;;;22.80;37.15;97449.20;108841;1250;95846;-72
2023/06/12 10:58:00;;;;;;;4.70;2.20;;;;;;;22.85;37.39;97446.08;108246;1258;95923;-72
2023/06/12 11:00:45;;;;;;;3.10;2.00;;;;;;;22.77;37.35;97443.61;108279;1258;103529;-74
2023/06/12 11:03:22;;;;;;;7.20;2.40;;;;;;;22.65;37.52;97443.64;108257;1258;101665;-72
2023/06/12 11:05:54;;;;;;;4.30;2.10;;;;;;;22.50;37.22;97445.23;107969;1259;99931;-74
2023/06/12 11:08:23;;;;;;;;;;;;;;;22.26;37.46;97444.74;108251;1258;95578;-75
2023/06/12 11:10:52;;;;;;;7.70;2.10;;;;;;;22.12;37.77;97438.52;108274;1258;95742;-73
2023/06/12 11:13:27;;;;;;;4.60;2.30;;;;;;;21.90;37.64;97431.93;108125;1260;103799;-76
2023/06/12 11:15:56;;;;;;;3.90;2.40;;;;;;;21.73;37.84;97433.11;108252;1258;101324;-74
2023/06/12 11:18:24;;;;;;;4.60;1.70;;;;;;;21.59;38.45;97427.67;108259;1258;100172;-74
2023/06/12 11:20:56;;;;;;;3.50;2.00;;;;;;;21.38;38.31;97426.55;108231;1258;95600;-74
2023/06/12 11:23:25;;;;;;;;;;;;;;;21.24;38.84;97432.25;108302;1258;95684;-75
2023/06/12 11:25:59;;;;;;;5.20;1.90;;;;;;;21.15;39.29;97428.73;108249;1258;103387;-76
2023/06/12 11:28:29;;;;;;;3.10;2.00;;;;;;;21.07;39.45;97421.56;108260;1258;101303;-77
2023/06/12 11:30:57;;;;;;;5.30;2.30;;;;;;;20.99;39.73;97417.62;108242;1258;99973;-77
2023/06/12 11:33:26;;;;;;;4.60;2.50;;;;;;;20.97;40.36;97416.65;108183;1258;95624;-75
2023/06/12 11:35:59;;;;;;;5.00;2.20;;;;;;;21.07;40.63;97417.27;108665;1252;96008;-76